sensor_id;sensor_type;location;lat;lon;timestamp;temperature;humidity
20670;DHT22;10494;50.868;4.180;2023-05-10T00:02:09;13.60;99.90
20670;DHT22;10494;50.868;4.180;2023-05-10T00:04:35;13.60;99.90
20670;DHT22;10494;50.868;4.180;2023-05-10T00:07:00;13.50;99.90
20670;DHT22;10494;50.868;4.180;2023-05-10T00:09:26;13.60;99.90
20670;DHT22;10494;50.868;4.180;2023-05-10T00:11:52;13.60;99.90
20670;DHT22;10494;50.868;4.180;2023-05-10T00:14:18;13.60;99.90
20670;DHT22;10494;50.868;4.180;2023-05-10T00:16:44;13.60;99.90
20670;DHT22;10494;50.868;4.180;2023-05-10T00:19:10;13.60;99.90
20670;DHT22;10494;50.868;4.180;2023-05-10T00:21:35;13.50;99.90
20670;DHT22;10494;50.868;4.180;2023-05-10T00:24:01;13.60;99.90
20670;DHT22;10494;50.868;4.180;2023-05-10T00:26:27;13.60;99.90
20670;DHT22;10494;50.868;4.180;2023-05-10T00:28:52;13.60;99.90
20670;DHT22;10494;50.868;4.180;2023-05-10T00:31:18;13.50;99.90
20670;DHT22;10494;50.868;4.180;2023-05-10T00:33:44;13.50;99.90
20670;DHT22;10494;50.868;4.180;2023-05-10T00:36:09;13.50;99.90
20670;DHT22;10494;50.868;4.180;2023-05-10T00:38:35;13.50;99.90
20670;DHT22;10494;50.868;4.180;2023-05-10T00:41:01;13.40;99.90
20670;DHT22;10494;50.868;4.180;2023-05-10T00:43:27;13.40;99.90
20670;DHT22;10494;50.868;4.180;2023-05-10T00:45:53;13.40;99.90
20670;DHT22;10494;50.868;4.180;2023-05-10T00:48:18;13.40;99.90
20670;DHT22;10494;50.868;4.180;2023-05-10T00:50:45;13.50;99.90
20670;DHT22;10494;50.868;4.180;2023-05-10T00:53:11;13.50;99.90
20670;DHT22;10494;50.868;4.180;2023-05-10T00:55:37;13.50;99.90
20670;DHT22;10494;50.868;4.180;2023-05-10T00:58:04;13.50;99.90
20670;DHT22;10494;50.868;4.180;2023-05-10T01:00:33;13.50;99.90
20670;DHT22;10494;50.868;4.180;2023-05-10T01:02:59;13.50;99.90
20670;DHT22;10494;50.868;4.180;2023-05-10T01:05:25;13.50;99.90
20670;DHT22;10494;50.868;4.180;2023-05-10T01:07:52;13.50;99.90
20670;DHT22;10494;50.868;4.180;2023-05-10T01:10:18;13.50;99.90
20670;DHT22;10494;50.868;4.180;2023-05-10T01:12:45;13.50;99.90
20670;DHT22;10494;50.868;4.180;2023-05-10T01:15:12;13.60;99.90
20670;DHT22;10494;50.868;4.180;2023-05-10T01:17:40;13.50;99.90
20670;DHT22;10494;50.868;4.180;2023-05-10T01:20:09;13.50;99.90
20670;DHT22;10494;50.868;4.180;2023-05-10T01:25:26;13.50;99.90
20670;DHT22;10494;50.868;4.180;2023-05-10T01:33:39;13.60;99.90
20670;DHT22;10494;50.868;4.180;2023-05-10T01:38:58;13.50;99.90
20670;DHT22;10494;50.868;4.180;2023-05-10T01:44:14;13.50;99.90
20670;DHT22;10494;50.868;4.180;2023-05-10T01:46:42;13.50;99.90
20670;DHT22;10494;50.868;4.180;2023-05-10T01:49:17;13.50;99.90
20670;DHT22;10494;50.868;4.180;2023-05-10T01:51:51;13.50;99.90
20670;DHT22;10494;50.868;4.180;2023-05-10T01:54:19;13.50;99.90
20670;DHT22;10494;50.868;4.180;2023-05-10T01:56:48;13.70;99.90
20670;DHT22;10494;50.868;4.180;2023-05-10T01:59:18;13.70;99.90
20670;DHT22;10494;50.868;4.180;2023-05-10T02:01:45;13.70;99.90
20670;DHT22;10494;50.868;4.180;2023-05-10T02:04:15;13.70;99.90
20670;DHT22;10494;50.868;4.180;2023-05-10T02:06:42;13.70;99.90
20670;DHT22;10494;50.868;4.180;2023-05-10T02:09:10;13.80;99.90
20670;DHT22;10494;50.868;4.180;2023-05-10T02:11:39;13.90;99.90
20670;DHT22;10494;50.868;4.180;2023-05-10T02:14:07;13.90;99.90
20670;DHT22;10494;50.868;4.180;2023-05-10T02:16:35;13.80;99.90
20670;DHT22;10494;50.868;4.180;2023-05-10T02:19:02;13.70;99.90
20670;DHT22;10494;50.868;4.180;2023-05-10T02:21:28;13.70;99.90
20670;DHT22;10494;50.868;4.180;2023-05-10T02:23:55;13.70;99.90
20670;DHT22;10494;50.868;4.180;2023-05-10T02:26:23;13.80;99.90
20670;DHT22;10494;50.868;4.180;2023-05-10T02:28:51;13.70;99.90
20670;DHT22;10494;50.868;4.180;2023-05-10T02:31:18;13.80;99.90
20670;DHT22;10494;50.868;4.180;2023-05-10T02:33:44;13.80;99.90
20670;DHT22;10494;50.868;4.180;2023-05-10T02:36:12;13.90;99.90
20670;DHT22;10494;50.868;4.180;2023-05-10T02:38:39;13.90;99.90
20670;DHT22;10494;50.868;4.180;2023-05-10T02:41:08;13.80;99.90
20670;DHT22;10494;50.868;4.180;2023-05-10T02:43:36;13.80;99.90
20670;DHT22;10494;50.868;4.180;2023-05-10T02:46:03;13.80;99.90
20670;DHT22;10494;50.868;4.180;2023-05-10T02:48:29;13.90;99.90
20670;DHT22;10494;50.868;4.180;2023-05-10T02:50:56;14.10;99.90
20670;DHT22;10494;50.868;4.180;2023-05-10T02:53:31;13.90;99.90
20670;DHT22;10494;50.868;4.180;2023-05-10T02:56:00;13.80;99.90
20670;DHT22;10494;50.868;4.180;2023-05-10T02:58:27;13.90;99.90
20670;DHT22;10494;50.868;4.180;2023-05-10T03:00:52;14.00;99.90
20670;DHT22;10494;50.868;4.180;2023-05-10T03:03:19;13.90;99.90
20670;DHT22;10494;50.868;4.180;2023-05-10T03:05:45;13.80;99.90
20670;DHT22;10494;50.868;4.180;2023-05-10T03:08:11;13.90;99.90
20670;DHT22;10494;50.868;4.180;2023-05-10T03:11:16;14.00;99.90
20670;DHT22;10494;50.868;4.180;2023-05-10T03:16:27;14.10;99.90
20670;DHT22;10494;50.868;4.180;2023-05-10T03:21:41;13.90;99.90
20670;DHT22;10494;50.868;4.180;2023-05-10T03:24:09;13.70;99.90
20670;DHT22;10494;50.868;4.180;2023-05-10T03:26:37;13.70;99.90
20670;DHT22;10494;50.868;4.180;2023-05-10T03:29:05;13.80;99.90
20670;DHT22;10494;50.868;4.180;2023-05-10T03:31:31;13.80;99.90
20670;DHT22;10494;50.868;4.180;2023-05-10T03:33:57;13.80;99.90
20670;DHT22;10494;50.868;4.180;2023-05-10T03:36:23;14.00;99.90
20670;DHT22;10494;50.868;4.180;2023-05-10T03:38:49;14.00;99.90
20670;DHT22;10494;50.868;4.180;2023-05-10T03:41:14;14.00;99.90
20670;DHT22;10494;50.868;4.180;2023-05-10T03:43:40;14.20;99.90
20670;DHT22;10494;50.868;4.180;2023-05-10T03:46:06;14.20;99.90
20670;DHT22;10494;50.868;4.180;2023-05-10T03:48:32;14.10;99.90
20670;DHT22;10494;50.868;4.180;2023-05-10T03:50:58;14.10;99.90
20670;DHT22;10494;50.868;4.180;2023-05-10T03:53:24;14.10;99.90
20670;DHT22;10494;50.868;4.180;2023-05-10T03:55:50;13.90;99.90
20670;DHT22;10494;50.868;4.180;2023-05-10T03:58:15;14.00;99.90
20670;DHT22;10494;50.868;4.180;2023-05-10T04:00:41;13.90;99.90
20670;DHT22;10494;50.868;4.180;2023-05-10T04:03:10;14.00;99.90
20670;DHT22;10494;50.868;4.180;2023-05-10T04:05:36;14.10;99.90
20670;DHT22;10494;50.868;4.180;2023-05-10T04:08:02;14.00;99.90
20670;DHT22;10494;50.868;4.180;2023-05-10T04:10:28;13.90;99.90
20670;DHT22;10494;50.868;4.180;2023-05-10T04:12:53;13.90;99.90
20670;DHT22;10494;50.868;4.180;2023-05-10T04:15:19;14.00;99.90
20670;DHT22;10494;50.868;4.180;2023-05-10T04:17:45;13.90;99.90
20670;DHT22;10494;50.868;4.180;2023-05-10T04:20:11;13.90;99.90
20670;DHT22;10494;50.868;4.180;2023-05-10T04:22:37;13.90;99.90
20670;DHT22;10494;50.868;4.180;2023-05-10T04:25:03;14.20;99.90
20670;DHT22;10494;50.868;4.180;2023-05-10T04:27:29;14.20;99.90
20670;DHT22;10494;50.868;4.180;2023-05-10T04:29:55;14.20;99.90
20670;DHT22;10494;50.868;4.180;2023-05-10T04:32:20;14.20;99.90
20670;DHT22;10494;50.868;4.180;2023-05-10T04:34:46;14.10;99.90
20670;DHT22;10494;50.868;4.180;2023-05-10T04:37:12;14.10;99.90
20670;DHT22;10494;50.868;4.180;2023-05-10T04:39:38;13.90;99.90
20670;DHT22;10494;50.868;4.180;2023-05-10T04:42:03;13.90;99.90
20670;DHT22;10494;50.868;4.180;2023-05-10T04:44:31;13.90;99.90
20670;DHT22;10494;50.868;4.180;2023-05-10T04:46:57;14.00;99.90
20670;DHT22;10494;50.868;4.180;2023-05-10T04:49:22;14.00;99.90
20670;DHT22;10494;50.868;4.180;2023-05-10T04:51:48;14.00;99.90
20670;DHT22;10494;50.868;4.180;2023-05-10T04:54:14;13.90;99.90
20670;DHT22;10494;50.868;4.180;2023-05-10T04:56:40;13.90;99.90
20670;DHT22;10494;50.868;4.180;2023-05-10T04:59:06;13.90;99.90
20670;DHT22;10494;50.868;4.180;2023-05-10T05:01:33;13.80;99.90
20670;DHT22;10494;50.868;4.180;2023-05-10T05:03:59;13.70;99.90
20670;DHT22;10494;50.868;4.180;2023-05-10T05:06:25;13.70;99.90
20670;DHT22;10494;50.868;4.180;2023-05-10T05:08:51;13.60;99.90
20670;DHT22;10494;50.868;4.180;2023-05-10T05:11:17;13.50;99.90
20670;DHT22;10494;50.868;4.180;2023-05-10T05:13:43;13.60;99.90
20670;DHT22;10494;50.868;4.180;2023-05-10T05:16:08;13.50;99.90
20670;DHT22;10494;50.868;4.180;2023-05-10T05:18:34;13.50;99.90
20670;DHT22;10494;50.868;4.180;2023-05-10T05:21:00;13.40;99.90
20670;DHT22;10494;50.868;4.180;2023-05-10T05:23:26;13.40;99.90
20670;DHT22;10494;50.868;4.180;2023-05-10T05:25:52;13.30;99.90
20670;DHT22;10494;50.868;4.180;2023-05-10T05:28:19;13.20;99.90
20670;DHT22;10494;50.868;4.180;2023-05-10T05:30:45;13.20;99.90
20670;DHT22;10494;50.868;4.180;2023-05-10T05:33:12;13.20;99.90
20670;DHT22;10494;50.868;4.180;2023-05-10T05:35:38;13.40;99.90
20670;DHT22;10494;50.868;4.180;2023-05-10T05:38:04;13.40;99.90
20670;DHT22;10494;50.868;4.180;2023-05-10T05:40:29;13.40;99.90
20670;DHT22;10494;50.868;4.180;2023-05-10T05:42:55;13.40;99.90
20670;DHT22;10494;50.868;4.180;2023-05-10T05:45:20;13.50;99.90
20670;DHT22;10494;50.868;4.180;2023-05-10T05:47:46;13.50;99.90
20670;DHT22;10494;50.868;4.180;2023-05-10T05:50:12;13.40;99.90
20670;DHT22;10494;50.868;4.180;2023-05-10T05:52:38;13.40;99.90
20670;DHT22;10494;50.868;4.180;2023-05-10T05:55:04;13.30;99.90
20670;DHT22;10494;50.868;4.180;2023-05-10T05:57:30;13.30;99.90
20670;DHT22;10494;50.868;4.180;2023-05-10T05:59:55;13.30;99.90
20670;DHT22;10494;50.868;4.180;2023-05-10T06:02:21;13.40;99.90
20670;DHT22;10494;50.868;4.180;2023-05-10T06:04:47;13.30;99.90
20670;DHT22;10494;50.868;4.180;2023-05-10T06:07:12;13.50;99.90
20670;DHT22;10494;50.868;4.180;2023-05-10T06:09:38;13.40;99.90
20670;DHT22;10494;50.868;4.180;2023-05-10T06:12:04;13.40;99.90
20670;DHT22;10494;50.868;4.180;2023-05-10T06:14:30;13.50;99.90
20670;DHT22;10494;50.868;4.180;2023-05-10T06:16:56;13.60;99.90
20670;DHT22;10494;50.868;4.180;2023-05-10T06:19:21;13.60;99.90
20670;DHT22;10494;50.868;4.180;2023-05-10T06:21:47;13.70;99.90
20670;DHT22;10494;50.868;4.180;2023-05-10T06:24:12;13.70;99.90
20670;DHT22;10494;50.868;4.180;2023-05-10T06:26:38;13.80;99.90
20670;DHT22;10494;50.868;4.180;2023-05-10T06:29:04;13.70;99.90
20670;DHT22;10494;50.868;4.180;2023-05-10T06:31:29;13.60;99.90
20670;DHT22;10494;50.868;4.180;2023-05-10T06:33:55;13.60;99.90
20670;DHT22;10494;50.868;4.180;2023-05-10T06:36:21;13.60;99.90
20670;DHT22;10494;50.868;4.180;2023-05-10T06:38:47;13.60;99.90
20670;DHT22;10494;50.868;4.180;2023-05-10T06:41:13;13.60;99.90
20670;DHT22;10494;50.868;4.180;2023-05-10T06:43:38;13.50;99.90
20670;DHT22;10494;50.868;4.180;2023-05-10T06:46:06;13.40;99.90
20670;DHT22;10494;50.868;4.180;2023-05-10T06:48:32;13.60;99.90
20670;DHT22;10494;50.868;4.180;2023-05-10T06:50:58;13.60;99.90
20670;DHT22;10494;50.868;4.180;2023-05-10T06:53:23;13.60;99.90
20670;DHT22;10494;50.868;4.180;2023-05-10T06:55:49;13.60;99.90
20670;DHT22;10494;50.868;4.180;2023-05-10T06:58:15;13.50;99.90
20670;DHT22;10494;50.868;4.180;2023-05-10T07:00:41;13.30;99.90
20670;DHT22;10494;50.868;4.180;2023-05-10T07:03:09;13.40;99.90
20670;DHT22;10494;50.868;4.180;2023-05-10T07:05:35;13.40;99.90
20670;DHT22;10494;50.868;4.180;2023-05-10T07:08:01;13.50;99.90
20670;DHT22;10494;50.868;4.180;2023-05-10T07:10:27;13.60;99.90
20670;DHT22;10494;50.868;4.180;2023-05-10T07:12:52;13.80;99.90
20670;DHT22;10494;50.868;4.180;2023-05-10T07:15:18;13.90;99.90
20670;DHT22;10494;50.868;4.180;2023-05-10T07:17:44;13.90;99.90
20670;DHT22;10494;50.868;4.180;2023-05-10T07:20:10;13.90;99.90
20670;DHT22;10494;50.868;4.180;2023-05-10T07:22:36;13.80;99.90
20670;DHT22;10494;50.868;4.180;2023-05-10T07:25:02;13.70;99.90
20670;DHT22;10494;50.868;4.180;2023-05-10T07:27:28;14.00;99.90
20670;DHT22;10494;50.868;4.180;2023-05-10T07:29:53;14.00;99.90
20670;DHT22;10494;50.868;4.180;2023-05-10T07:32:20;14.00;99.90
20670;DHT22;10494;50.868;4.180;2023-05-10T07:34:45;14.10;99.90
20670;DHT22;10494;50.868;4.180;2023-05-10T07:37:11;14.20;99.90
20670;DHT22;10494;50.868;4.180;2023-05-10T07:39:37;14.30;99.90
20670;DHT22;10494;50.868;4.180;2023-05-10T07:42:02;14.40;99.90
20670;DHT22;10494;50.868;4.180;2023-05-10T07:44:28;14.60;99.90
20670;DHT22;10494;50.868;4.180;2023-05-10T07:46:54;14.60;99.90
20670;DHT22;10494;50.868;4.180;2023-05-10T07:49:21;14.40;99.90
20670;DHT22;10494;50.868;4.180;2023-05-10T07:51:47;14.40;99.90
20670;DHT22;10494;50.868;4.180;2023-05-10T07:54:14;14.30;99.90
20670;DHT22;10494;50.868;4.180;2023-05-10T07:56:40;14.00;99.90
20670;DHT22;10494;50.868;4.180;2023-05-10T07:59:15;13.80;99.90
20670;DHT22;10494;50.868;4.180;2023-05-10T08:01:42;13.70;99.90
20670;DHT22;10494;50.868;4.180;2023-05-10T08:04:08;13.70;99.90
20670;DHT22;10494;50.868;4.180;2023-05-10T08:06:34;13.70;99.90
20670;DHT22;10494;50.868;4.180;2023-05-10T08:09:00;13.60;99.90
20670;DHT22;10494;50.868;4.180;2023-05-10T08:11:25;13.60;99.90
20670;DHT22;10494;50.868;4.180;2023-05-10T08:13:53;13.60;99.90
20670;DHT22;10494;50.868;4.180;2023-05-10T08:16:19;13.60;99.90
20670;DHT22;10494;50.868;4.180;2023-05-10T08:18:46;13.80;99.90
20670;DHT22;10494;50.868;4.180;2023-05-10T08:21:12;13.80;99.90
20670;DHT22;10494;50.868;4.180;2023-05-10T08:23:39;13.90;99.90
20670;DHT22;10494;50.868;4.180;2023-05-10T08:26:04;13.90;99.90
20670;DHT22;10494;50.868;4.180;2023-05-10T08:28:30;13.80;99.90
20670;DHT22;10494;50.868;4.180;2023-05-10T08:30:56;13.90;99.90
20670;DHT22;10494;50.868;4.180;2023-05-10T08:33:22;14.00;99.90
20670;DHT22;10494;50.868;4.180;2023-05-10T08:35:47;13.90;99.90
20670;DHT22;10494;50.868;4.180;2023-05-10T08:38:13;14.00;99.90
20670;DHT22;10494;50.868;4.180;2023-05-10T08:40:43;14.20;99.90
20670;DHT22;10494;50.868;4.180;2023-05-10T08:43:10;14.20;99.90
20670;DHT22;10494;50.868;4.180;2023-05-10T08:45:41;14.20;99.90
20670;DHT22;10494;50.868;4.180;2023-05-10T08:48:08;14.10;99.90
20670;DHT22;10494;50.868;4.180;2023-05-10T08:50:39;14.10;99.90
20670;DHT22;10494;50.868;4.180;2023-05-10T08:53:11;14.20;99.90
20670;DHT22;10494;50.868;4.180;2023-05-10T08:55:38;14.20;99.90
20670;DHT22;10494;50.868;4.180;2023-05-10T08:58:07;14.00;99.90
20670;DHT22;10494;50.868;4.180;2023-05-10T09:00:34;14.00;99.90
20670;DHT22;10494;50.868;4.180;2023-05-10T09:03:01;14.10;99.90
20670;DHT22;10494;50.868;4.180;2023-05-10T09:05:27;14.20;99.90
20670;DHT22;10494;50.868;4.180;2023-05-10T09:07:53;14.20;99.90
20670;DHT22;10494;50.868;4.180;2023-05-10T09:10:19;14.10;99.90
20670;DHT22;10494;50.868;4.180;2023-05-10T09:12:45;14.00;99.90
20670;DHT22;10494;50.868;4.180;2023-05-10T09:15:15;14.00;99.90
20670;DHT22;10494;50.868;4.180;2023-05-10T09:17:41;13.80;99.90
20670;DHT22;10494;50.868;4.180;2023-05-10T09:20:07;14.00;99.90
20670;DHT22;10494;50.868;4.180;2023-05-10T09:22:34;14.10;99.90
20670;DHT22;10494;50.868;4.180;2023-05-10T09:27:36;14.70;99.90
20670;DHT22;10494;50.868;4.180;2023-05-10T09:30:03;14.30;99.90
20670;DHT22;10494;50.868;4.180;2023-05-10T09:35:14;14.50;99.90
20670;DHT22;10494;50.868;4.180;2023-05-10T09:37:42;14.60;99.90
20670;DHT22;10494;50.868;4.180;2023-05-10T09:40:11;14.60;99.90
20670;DHT22;10494;50.868;4.180;2023-05-10T09:42:38;14.60;99.90
20670;DHT22;10494;50.868;4.180;2023-05-10T09:45:05;14.60;99.90
20670;DHT22;10494;50.868;4.180;2023-05-10T09:47:34;14.70;99.90
20670;DHT22;10494;50.868;4.180;2023-05-10T09:50:01;14.70;99.90
20670;DHT22;10494;50.868;4.180;2023-05-10T09:55:14;14.60;99.90
20670;DHT22;10494;50.868;4.180;2023-05-10T09:57:39;14.70;99.90
20670;DHT22;10494;50.868;4.180;2023-05-10T10:00:06;14.80;99.90
20670;DHT22;10494;50.868;4.180;2023-05-10T10:02:33;14.70;99.90
20670;DHT22;10494;50.868;4.180;2023-05-10T10:05:00;14.60;99.90
20670;DHT22;10494;50.868;4.180;2023-05-10T10:07:27;14.50;99.90
20670;DHT22;10494;50.868;4.180;2023-05-10T10:09:53;14.60;99.90
20670;DHT22;10494;50.868;4.180;2023-05-10T10:12:19;14.80;99.90
20670;DHT22;10494;50.868;4.180;2023-05-10T10:14:48;14.80;99.90
20670;DHT22;10494;50.868;4.180;2023-05-10T10:17:16;14.90;99.90
20670;DHT22;10494;50.868;4.180;2023-05-10T10:19:42;15.00;99.90
20670;DHT22;10494;50.868;4.180;2023-05-10T10:22:07;15.00;99.90
20670;DHT22;10494;50.868;4.180;2023-05-10T10:24:33;15.10;99.90
20670;DHT22;10494;50.868;4.180;2023-05-10T10:27:28;15.00;99.90
20670;DHT22;10494;50.868;4.180;2023-05-10T10:30:56;15.10;99.90
20670;DHT22;10494;50.868;4.180;2023-05-10T10:33:29;15.10;99.90
20670;DHT22;10494;50.868;4.180;2023-05-10T10:35:57;15.40;99.90
20670;DHT22;10494;50.868;4.180;2023-05-10T10:38:24;15.50;99.90
20670;DHT22;10494;50.868;4.180;2023-05-10T10:41:02;15.60;99.90
20670;DHT22;10494;50.868;4.180;2023-05-10T10:43:29;15.60;99.90
20670;DHT22;10494;50.868;4.180;2023-05-10T10:46:14;15.70;99.90
20670;DHT22;10494;50.868;4.180;2023-05-10T10:49:09;15.90;99.90
20670;DHT22;10494;50.868;4.180;2023-05-10T10:51:39;16.20;99.90
20670;DHT22;10494;50.868;4.180;2023-05-10T10:54:11;16.30;99.90
20670;DHT22;10494;50.868;4.180;2023-05-10T10:56:37;16.70;99.90
20670;DHT22;10494;50.868;4.180;2023-05-10T10:59:03;16.60;99.90
20670;DHT22;10494;50.868;4.180;2023-05-10T11:01:33;16.20;99.90
20670;DHT22;10494;50.868;4.180;2023-05-10T11:06:33;16.50;99.90
20670;DHT22;10494;50.868;4.180;2023-05-10T11:09:05;16.40;99.90
20670;DHT22;10494;50.868;4.180;2023-05-10T11:11:31;16.50;99.90
20670;DHT22;10494;50.868;4.180;2023-05-10T11:14:03;16.70;99.90
20670;DHT22;10494;50.868;4.180;2023-05-10T11:16:41;16.90;99.90
20670;DHT22;10494;50.868;4.180;2023-05-10T11:19:10;17.00;99.90
20670;DHT22;10494;50.868;4.180;2023-05-10T11:21:49;16.90;99.90
20670;DHT22;10494;50.868;4.180;2023-05-10T11:24:17;16.70;99.90
20670;DHT22;10494;50.868;4.180;2023-05-10T11:26:43;16.80;99.90
20670;DHT22;10494;50.868;4.180;2023-05-10T11:29:09;16.80;99.90
20670;DHT22;10494;50.868;4.180;2023-05-10T11:31:35;16.70;99.90
20670;DHT22;10494;50.868;4.180;2023-05-10T11:34:01;16.60;99.90
20670;DHT22;10494;50.868;4.180;2023-05-10T11:36:35;16.70;99.90
20670;DHT22;10494;50.868;4.180;2023-05-10T11:39:01;16.70;99.90
20670;DHT22;10494;50.868;4.180;2023-05-10T11:41:29;16.50;99.90
20670;DHT22;10494;50.868;4.180;2023-05-10T11:43:56;16.40;99.90
20670;DHT22;10494;50.868;4.180;2023-05-10T11:46:24;16.40;99.90
20670;DHT22;10494;50.868;4.180;2023-05-10T11:48:52;16.50;99.90
20670;DHT22;10494;50.868;4.180;2023-05-10T11:51:25;16.30;99.90
20670;DHT22;10494;50.868;4.180;2023-05-10T11:53:55;16.30;99.90
20670;DHT22;10494;50.868;4.180;2023-05-10T11:56:20;16.40;99.90
20670;DHT22;10494;50.868;4.180;2023-05-10T11:58:53;16.50;99.90
20670;DHT22;10494;50.868;4.180;2023-05-10T12:01:20;16.50;99.90
20670;DHT22;10494;50.868;4.180;2023-05-10T12:03:46;16.60;99.90
20670;DHT22;10494;50.868;4.180;2023-05-10T12:06:12;16.60;99.90
20670;DHT22;10494;50.868;4.180;2023-05-10T12:08:44;16.80;99.90
20670;DHT22;10494;50.868;4.180;2023-05-10T12:11:11;16.80;99.90
20670;DHT22;10494;50.868;4.180;2023-05-10T12:13:38;16.90;99.90
20670;DHT22;10494;50.868;4.180;2023-05-10T12:16:24;17.00;99.90
20670;DHT22;10494;50.868;4.180;2023-05-10T12:18:51;17.10;99.90
20670;DHT22;10494;50.868;4.180;2023-05-10T12:21:18;17.00;99.90
20670;DHT22;10494;50.868;4.180;2023-05-10T12:23:52;17.00;99.90
20670;DHT22;10494;50.868;4.180;2023-05-10T12:26:21;17.00;99.90
20670;DHT22;10494;50.868;4.180;2023-05-10T12:28:47;17.10;99.90
20670;DHT22;10494;50.868;4.180;2023-05-10T12:31:13;17.20;99.90
20670;DHT22;10494;50.868;4.180;2023-05-10T12:33:40;17.30;99.90
20670;DHT22;10494;50.868;4.180;2023-05-10T12:36:09;17.50;99.90
20670;DHT22;10494;50.868;4.180;2023-05-10T12:38:42;17.50;99.90
20670;DHT22;10494;50.868;4.180;2023-05-10T12:41:13;17.70;99.90
20670;DHT22;10494;50.868;4.180;2023-05-10T12:43:39;17.70;99.90
20670;DHT22;10494;50.868;4.180;2023-05-10T12:46:12;17.70;99.90
20670;DHT22;10494;50.868;4.180;2023-05-10T12:48:38;17.70;99.90
20670;DHT22;10494;50.868;4.180;2023-05-10T12:51:05;17.90;99.90
20670;DHT22;10494;50.868;4.180;2023-05-10T12:53:35;17.80;99.90
20670;DHT22;10494;50.868;4.180;2023-05-10T12:56:01;17.80;99.90
20670;DHT22;10494;50.868;4.180;2023-05-10T12:58:27;17.90;99.90
20670;DHT22;10494;50.868;4.180;2023-05-10T13:00:54;18.00;99.90
20670;DHT22;10494;50.868;4.180;2023-05-10T13:03:21;18.10;99.90
20670;DHT22;10494;50.868;4.180;2023-05-10T13:05:47;18.00;99.90
20670;DHT22;10494;50.868;4.180;2023-05-10T13:08:13;17.90;99.90
20670;DHT22;10494;50.868;4.180;2023-05-10T13:10:39;17.90;99.90
20670;DHT22;10494;50.868;4.180;2023-05-10T13:13:04;18.00;99.90
20670;DHT22;10494;50.868;4.180;2023-05-10T13:15:30;18.10;99.90
20670;DHT22;10494;50.868;4.180;2023-05-10T13:17:56;17.90;99.90
20670;DHT22;10494;50.868;4.180;2023-05-10T13:20:22;17.70;99.90
20670;DHT22;10494;50.868;4.180;2023-05-10T13:22:47;17.70;99.90
20670;DHT22;10494;50.868;4.180;2023-05-10T13:25:13;17.50;99.90
20670;DHT22;10494;50.868;4.180;2023-05-10T13:27:40;17.40;99.90
20670;DHT22;10494;50.868;4.180;2023-05-10T13:30:09;17.40;99.90
20670;DHT22;10494;50.868;4.180;2023-05-10T13:32:36;17.40;99.90
20670;DHT22;10494;50.868;4.180;2023-05-10T13:35:03;17.50;99.90
20670;DHT22;10494;50.868;4.180;2023-05-10T13:37:29;17.50;99.90
20670;DHT22;10494;50.868;4.180;2023-05-10T13:39:55;17.30;99.90
20670;DHT22;10494;50.868;4.180;2023-05-10T13:42:22;17.50;99.90
20670;DHT22;10494;50.868;4.180;2023-05-10T13:44:49;17.60;99.90
20670;DHT22;10494;50.868;4.180;2023-05-10T13:47:15;17.80;99.90
20670;DHT22;10494;50.868;4.180;2023-05-10T13:49:41;17.80;99.90
20670;DHT22;10494;50.868;4.180;2023-05-10T13:52:06;17.80;99.90
20670;DHT22;10494;50.868;4.180;2023-05-10T13:54:38;17.80;99.90
20670;DHT22;10494;50.868;4.180;2023-05-10T13:57:04;17.70;99.90
20670;DHT22;10494;50.868;4.180;2023-05-10T13:59:30;17.60;99.90
20670;DHT22;10494;50.868;4.180;2023-05-10T14:02:00;17.60;99.90
20670;DHT22;10494;50.868;4.180;2023-05-10T14:04:28;17.60;99.90
20670;DHT22;10494;50.868;4.180;2023-05-10T14:06:54;17.40;99.90
20670;DHT22;10494;50.868;4.180;2023-05-10T14:09:20;17.20;99.90
20670;DHT22;10494;50.868;4.180;2023-05-10T14:11:46;17.20;99.90
20670;DHT22;10494;50.868;4.180;2023-05-10T14:14:12;17.20;99.90
20670;DHT22;10494;50.868;4.180;2023-05-10T14:16:43;17.20;99.90
20670;DHT22;10494;50.868;4.180;2023-05-10T14:19:09;17.30;99.90
20670;DHT22;10494;50.868;4.180;2023-05-10T14:21:34;17.50;99.90
20670;DHT22;10494;50.868;4.180;2023-05-10T14:24:00;17.60;99.90
20670;DHT22;10494;50.868;4.180;2023-05-10T14:26:26;17.70;99.90
20670;DHT22;10494;50.868;4.180;2023-05-10T14:28:51;17.50;99.90
20670;DHT22;10494;50.868;4.180;2023-05-10T14:31:17;17.30;99.90
20670;DHT22;10494;50.868;4.180;2023-05-10T14:33:46;17.00;99.90
20670;DHT22;10494;50.868;4.180;2023-05-10T14:36:11;16.80;99.90
20670;DHT22;10494;50.868;4.180;2023-05-10T14:38:38;16.60;99.90
20670;DHT22;10494;50.868;4.180;2023-05-10T14:41:04;16.30;99.90
20670;DHT22;10494;50.868;4.180;2023-05-10T14:43:30;16.00;99.90
20670;DHT22;10494;50.868;4.180;2023-05-10T14:45:56;15.80;99.90
20670;DHT22;10494;50.868;4.180;2023-05-10T14:48:21;15.50;99.90
20670;DHT22;10494;50.868;4.180;2023-05-10T14:50:47;15.30;99.90
20670;DHT22;10494;50.868;4.180;2023-05-10T14:53:15;15.00;99.90
20670;DHT22;10494;50.868;4.180;2023-05-10T14:55:41;14.80;99.90
20670;DHT22;10494;50.868;4.180;2023-05-10T14:58:06;14.60;99.90
20670;DHT22;10494;50.868;4.180;2023-05-10T15:00:32;14.60;99.90
20670;DHT22;10494;50.868;4.180;2023-05-10T15:03:01;14.60;99.90
20670;DHT22;10494;50.868;4.180;2023-05-10T15:05:26;14.70;99.90
20670;DHT22;10494;50.868;4.180;2023-05-10T15:07:52;14.70;99.90
20670;DHT22;10494;50.868;4.180;2023-05-10T15:10:18;14.70;99.90
20670;DHT22;10494;50.868;4.180;2023-05-10T15:12:43;15.00;99.90
20670;DHT22;10494;50.868;4.180;2023-05-10T15:15:09;15.10;99.90
20670;DHT22;10494;50.868;4.180;2023-05-10T15:17:35;15.20;99.90
20670;DHT22;10494;50.868;4.180;2023-05-10T15:20:01;15.10;99.90
20670;DHT22;10494;50.868;4.180;2023-05-10T15:22:30;15.00;99.90
20670;DHT22;10494;50.868;4.180;2023-05-10T15:24:58;15.00;99.90
20670;DHT22;10494;50.868;4.180;2023-05-10T15:27:25;15.10;99.90
20670;DHT22;10494;50.868;4.180;2023-05-10T15:29:51;15.20;99.90
20670;DHT22;10494;50.868;4.180;2023-05-10T15:32:17;15.20;99.90
20670;DHT22;10494;50.868;4.180;2023-05-10T15:34:42;15.40;99.90
20670;DHT22;10494;50.868;4.180;2023-05-10T15:37:08;15.40;99.90
20670;DHT22;10494;50.868;4.180;2023-05-10T15:39:34;15.50;99.90
20670;DHT22;10494;50.868;4.180;2023-05-10T15:41:59;15.60;99.90
20670;DHT22;10494;50.868;4.180;2023-05-10T15:44:26;15.60;99.90
20670;DHT22;10494;50.868;4.180;2023-05-10T15:46:55;15.30;99.90
20670;DHT22;10494;50.868;4.180;2023-05-10T15:49:21;15.40;99.90
20670;DHT22;10494;50.868;4.180;2023-05-10T15:51:46;15.50;99.90
20670;DHT22;10494;50.868;4.180;2023-05-10T15:54:12;15.60;99.90
20670;DHT22;10494;50.868;4.180;2023-05-10T15:56:38;15.60;99.90
20670;DHT22;10494;50.868;4.180;2023-05-10T15:59:15;15.60;99.90
20670;DHT22;10494;50.868;4.180;2023-05-10T16:01:41;15.60;99.90